sensor_id;sensor_type;location;lat;lon;timestamp;temperature;humidity
59771;DHT22;45649;53.014;6.600;2022-08-19T00:00:35;18.00;86.70
59771;DHT22;45649;53.014;6.600;2022-08-19T00:03:01;18.00;86.80
59771;DHT22;45649;53.014;6.600;2022-08-19T00:05:27;18.00;86.90
59771;DHT22;45649;53.014;6.600;2022-08-19T00:07:53;18.00;86.80
59771;DHT22;45649;53.014;6.600;2022-08-19T00:10:20;17.90;86.80
59771;DHT22;45649;53.014;6.600;2022-08-19T00:12:46;17.90;86.70
59771;DHT22;45649;53.014;6.600;2022-08-19T00:15:15;17.90;86.50
59771;DHT22;45649;53.014;6.600;2022-08-19T00:17:42;17.90;86.30
59771;DHT22;45649;53.014;6.600;2022-08-19T00:20:11;17.80;87.30
59771;DHT22;45649;53.014;6.600;2022-08-19T00:22:38;17.70;86.50
59771;DHT22;45649;53.014;6.600;2022-08-19T00:25:05;17.60;86.40
59771;DHT22;45649;53.014;6.600;2022-08-19T00:27:31;17.70;86.40
59771;DHT22;45649;53.014;6.600;2022-08-19T00:29:57;17.70;86.10
59771;DHT22;45649;53.014;6.600;2022-08-19T00:32:25;17.70;85.80
59771;DHT22;45649;53.014;6.600;2022-08-19T00:34:51;17.70;85.80
59771;DHT22;45649;53.014;6.600;2022-08-19T00:37:22;17.60;86.10
59771;DHT22;45649;53.014;6.600;2022-08-19T00:39:49;17.60;86.40
59771;DHT22;45649;53.014;6.600;2022-08-19T00:42:16;17.60;86.50
59771;DHT22;45649;53.014;6.600;2022-08-19T00:44:42;17.50;87.00
59771;DHT22;45649;53.014;6.600;2022-08-19T00:47:08;17.40;87.20
59771;DHT22;45649;53.014;6.600;2022-08-19T00:49:55;17.40;87.20
59771;DHT22;45649;53.014;6.600;2022-08-19T00:52:32;17.50;87.00
59771;DHT22;45649;53.014;6.600;2022-08-19T00:54:59;17.50;86.90
59771;DHT22;45649;53.014;6.600;2022-08-19T00:57:37;17.50;86.50
59771;DHT22;45649;53.014;6.600;2022-08-19T01:00:10;17.60;87.60
59771;DHT22;45649;53.014;6.600;2022-08-19T01:02:37;17.60;86.50
59771;DHT22;45649;53.014;6.600;2022-08-19T01:05:08;17.50;86.30
59771;DHT22;45649;53.014;6.600;2022-08-19T01:07:35;17.50;86.30
59771;DHT22;45649;53.014;6.600;2022-08-19T01:10:05;17.50;86.60
59771;DHT22;45649;53.014;6.600;2022-08-19T01:12:31;17.40;86.70
59771;DHT22;45649;53.014;6.600;2022-08-19T01:14:58;17.40;86.70
59771;DHT22;45649;53.014;6.600;2022-08-19T01:17:25;17.40;86.60
59771;DHT22;45649;53.014;6.600;2022-08-19T01:19:50;17.40;87.30
59771;DHT22;45649;53.014;6.600;2022-08-19T01:22:39;17.40;85.90
59771;DHT22;45649;53.014;6.600;2022-08-19T01:25:07;17.40;86.00
59771;DHT22;45649;53.014;6.600;2022-08-19T01:27:40;17.30;85.70
59771;DHT22;45649;53.014;6.600;2022-08-19T01:30:07;17.30;85.60
59771;DHT22;45649;53.014;6.600;2022-08-19T01:32:33;17.20;85.80
59771;DHT22;45649;53.014;6.600;2022-08-19T01:35:01;17.20;85.90
59771;DHT22;45649;53.014;6.600;2022-08-19T01:37:28;17.10;86.00
59771;DHT22;45649;53.014;6.600;2022-08-19T01:39:54;17.10;86.10
59771;DHT22;45649;53.014;6.600;2022-08-19T01:42:20;17.00;86.10
59771;DHT22;45649;53.014;6.600;2022-08-19T01:44:47;17.10;86.10
59771;DHT22;45649;53.014;6.600;2022-08-19T01:47:14;17.10;86.20
59771;DHT22;45649;53.014;6.600;2022-08-19T01:49:40;17.10;86.10
59771;DHT22;45649;53.014;6.600;2022-08-19T01:52:06;17.10;85.90
59771;DHT22;45649;53.014;6.600;2022-08-19T01:54:32;17.10;85.80
59771;DHT22;45649;53.014;6.600;2022-08-19T01:57:01;17.20;85.60
59771;DHT22;45649;53.014;6.600;2022-08-19T01:59:30;17.20;85.40
59771;DHT22;45649;53.014;6.600;2022-08-19T02:01:56;17.20;85.70
59771;DHT22;45649;53.014;6.600;2022-08-19T02:04:22;17.10;85.90
59771;DHT22;45649;53.014;6.600;2022-08-19T02:06:48;17.00;86.00
59771;DHT22;45649;53.014;6.600;2022-08-19T02:09:14;16.90;86.30
59771;DHT22;45649;53.014;6.600;2022-08-19T02:11:41;16.80;86.50
59771;DHT22;45649;53.014;6.600;2022-08-19T02:14:07;16.80;86.70
59771;DHT22;45649;53.014;6.600;2022-08-19T02:16:35;16.80;86.50
59771;DHT22;45649;53.014;6.600;2022-08-19T02:19:01;16.90;86.40
59771;DHT22;45649;53.014;6.600;2022-08-19T02:21:27;16.90;86.40
59771;DHT22;45649;53.014;6.600;2022-08-19T02:23:53;16.90;86.30
59771;DHT22;45649;53.014;6.600;2022-08-19T02:26:19;16.90;86.20
59771;DHT22;45649;53.014;6.600;2022-08-19T02:28:45;16.90;86.10
59771;DHT22;45649;53.014;6.600;2022-08-19T02:31:18;16.80;86.20
59771;DHT22;45649;53.014;6.600;2022-08-19T02:33:45;16.70;86.40
59771;DHT22;45649;53.014;6.600;2022-08-19T02:36:12;16.60;86.20
59771;DHT22;45649;53.014;6.600;2022-08-19T02:38:39;16.60;86.40
59771;DHT22;45649;53.014;6.600;2022-08-19T02:41:11;16.50;86.70
59771;DHT22;45649;53.014;6.600;2022-08-19T02:43:37;16.50;87.20
59771;DHT22;45649;53.014;6.600;2022-08-19T02:46:22;16.40;87.10
59771;DHT22;45649;53.014;6.600;2022-08-19T02:48:50;16.50;87.10
59771;DHT22;45649;53.014;6.600;2022-08-19T02:51:22;16.60;86.60
59771;DHT22;45649;53.014;6.600;2022-08-19T02:53:48;16.60;86.60
59771;DHT22;45649;53.014;6.600;2022-08-19T02:56:13;16.60;86.70
59771;DHT22;45649;53.014;6.600;2022-08-19T02:58:40;16.60;86.60
59771;DHT22;45649;53.014;6.600;2022-08-19T03:01:06;16.70;86.40
59771;DHT22;45649;53.014;6.600;2022-08-19T03:03:32;16.70;85.90
59771;DHT22;45649;53.014;6.600;2022-08-19T03:06:09;16.80;85.60
59771;DHT22;45649;53.014;6.600;2022-08-19T03:08:36;16.80;85.70
59771;DHT22;45649;53.014;6.600;2022-08-19T03:11:03;16.80;85.60
59771;DHT22;45649;53.014;6.600;2022-08-19T03:13:29;16.80;85.70
59771;DHT22;45649;53.014;6.600;2022-08-19T03:15:55;16.80;85.50
59771;DHT22;45649;53.014;6.600;2022-08-19T03:18:21;16.80;85.30
59771;DHT22;45649;53.014;6.600;2022-08-19T03:20:51;16.80;85.60
59771;DHT22;45649;53.014;6.600;2022-08-19T03:23:22;16.80;85.80
59771;DHT22;45649;53.014;6.600;2022-08-19T03:25:52;16.80;85.70
59771;DHT22;45649;53.014;6.600;2022-08-19T03:28:20;16.80;85.20
59771;DHT22;45649;53.014;6.600;2022-08-19T03:30:59;16.80;85.00
59771;DHT22;45649;53.014;6.600;2022-08-19T03:33:26;16.90;84.90
59771;DHT22;45649;53.014;6.600;2022-08-19T03:36:14;16.90;84.80
59771;DHT22;45649;53.014;6.600;2022-08-19T03:38:43;16.90;85.10
59771;DHT22;45649;53.014;6.600;2022-08-19T03:41:12;16.80;85.20
59771;DHT22;45649;53.014;6.600;2022-08-19T03:43:39;16.80;85.60
59771;DHT22;45649;53.014;6.600;2022-08-19T03:46:08;16.70;85.60
59771;DHT22;45649;53.014;6.600;2022-08-19T03:48:35;16.70;85.70
59771;DHT22;45649;53.014;6.600;2022-08-19T03:51:03;16.60;85.70
59771;DHT22;45649;53.014;6.600;2022-08-19T03:53:29;16.50;85.90
59771;DHT22;45649;53.014;6.600;2022-08-19T03:55:56;16.50;86.10
59771;DHT22;45649;53.014;6.600;2022-08-19T03:58:25;16.50;86.20
59771;DHT22;45649;53.014;6.600;2022-08-19T04:00:51;16.50;86.20
59771;DHT22;45649;53.014;6.600;2022-08-19T04:03:17;16.40;86.30
59771;DHT22;45649;53.014;6.600;2022-08-19T04:05:44;16.40;86.20
59771;DHT22;45649;53.014;6.600;2022-08-19T04:08:10;16.30;86.40
59771;DHT22;45649;53.014;6.600;2022-08-19T04:10:37;16.30;86.40
59771;DHT22;45649;53.014;6.600;2022-08-19T04:13:04;16.40;86.20
59771;DHT22;45649;53.014;6.600;2022-08-19T04:15:32;16.50;86.00
59771;DHT22;45649;53.014;6.600;2022-08-19T04:18:04;16.50;86.10
59771;DHT22;45649;53.014;6.600;2022-08-19T04:20:31;16.40;86.50
59771;DHT22;45649;53.014;6.600;2022-08-19T04:22:57;16.30;86.50
59771;DHT22;45649;53.014;6.600;2022-08-19T04:25:23;16.30;86.60
59771;DHT22;45649;53.014;6.600;2022-08-19T04:27:48;16.30;86.40
59771;DHT22;45649;53.014;6.600;2022-08-19T04:30:14;16.20;86.30
59771;DHT22;45649;53.014;6.600;2022-08-19T04:32:40;16.10;86.50
59771;DHT22;45649;53.014;6.600;2022-08-19T04:35:06;16.00;86.80
59771;DHT22;45649;53.014;6.600;2022-08-19T04:37:32;16.00;87.00
59771;DHT22;45649;53.014;6.600;2022-08-19T04:39:59;16.00;88.00
59771;DHT22;45649;53.014;6.600;2022-08-19T04:42:43;15.90;87.10
59771;DHT22;45649;53.014;6.600;2022-08-19T04:45:13;15.90;87.20
59771;DHT22;45649;53.014;6.600;2022-08-19T04:47:41;15.90;87.30
59771;DHT22;45649;53.014;6.600;2022-08-19T04:50:08;16.00;87.40
59771;DHT22;45649;53.014;6.600;2022-08-19T04:52:36;16.00;87.60
59771;DHT22;45649;53.014;6.600;2022-08-19T04:55:03;16.00;87.60
59771;DHT22;45649;53.014;6.600;2022-08-19T04:57:31;16.00;87.50
59771;DHT22;45649;53.014;6.600;2022-08-19T04:59:57;16.00;88.40
59771;DHT22;45649;53.014;6.600;2022-08-19T05:02:22;16.00;87.30
59771;DHT22;45649;53.014;6.600;2022-08-19T05:04:50;16.00;87.50
59771;DHT22;45649;53.014;6.600;2022-08-19T05:07:16;16.10;87.00
59771;DHT22;45649;53.014;6.600;2022-08-19T05:09:42;16.20;87.30
59771;DHT22;45649;53.014;6.600;2022-08-19T05:12:08;16.20;87.40
59771;DHT22;45649;53.014;6.600;2022-08-19T05:14:33;16.30;87.30
59771;DHT22;45649;53.014;6.600;2022-08-19T05:17:02;16.30;86.80
59771;DHT22;45649;53.014;6.600;2022-08-19T05:19:28;16.40;86.90
59771;DHT22;45649;53.014;6.600;2022-08-19T05:22:12;16.40;86.40
59771;DHT22;45649;53.014;6.600;2022-08-19T05:25:19;16.50;86.10
59771;DHT22;45649;53.014;6.600;2022-08-19T05:27:45;16.60;85.70
59771;DHT22;45649;53.014;6.600;2022-08-19T05:30:11;16.60;86.00
59771;DHT22;45649;53.014;6.600;2022-08-19T05:32:39;16.60;86.30
59771;DHT22;45649;53.014;6.600;2022-08-19T05:35:05;16.70;86.40
59771;DHT22;45649;53.014;6.600;2022-08-19T05:37:31;16.70;86.80
59771;DHT22;45649;53.014;6.600;2022-08-19T05:39:57;16.80;87.30
59771;DHT22;45649;53.014;6.600;2022-08-19T05:42:23;16.90;87.70
59771;DHT22;45649;53.014;6.600;2022-08-19T05:44:50;17.00;87.60
59771;DHT22;45649;53.014;6.600;2022-08-19T05:47:16;17.00;87.60
59771;DHT22;45649;53.014;6.600;2022-08-19T05:49:42;17.10;88.30
59771;DHT22;45649;53.014;6.600;2022-08-19T05:52:10;17.20;88.20
59771;DHT22;45649;53.014;6.600;2022-08-19T05:54:38;17.20;88.80
59771;DHT22;45649;53.014;6.600;2022-08-19T05:57:06;17.30;88.60
59771;DHT22;45649;53.014;6.600;2022-08-19T05:59:32;17.30;89.70
59771;DHT22;45649;53.014;6.600;2022-08-19T06:02:01;17.40;90.00
59771;DHT22;45649;53.014;6.600;2022-08-19T06:04:27;17.40;90.50
59771;DHT22;45649;53.014;6.600;2022-08-19T06:06:54;17.50;89.50
59771;DHT22;45649;53.014;6.600;2022-08-19T06:09:21;17.60;89.80
59771;DHT22;45649;53.014;6.600;2022-08-19T06:11:49;17.70;90.20
59771;DHT22;45649;53.014;6.600;2022-08-19T06:14:24;17.70;90.40
59771;DHT22;45649;53.014;6.600;2022-08-19T06:16:50;17.80;90.70
59771;DHT22;45649;53.014;6.600;2022-08-19T06:19:22;17.70;90.70
59771;DHT22;45649;53.014;6.600;2022-08-19T06:21:50;17.80;90.70
59771;DHT22;45649;53.014;6.600;2022-08-19T06:24:20;17.80;89.30
59771;DHT22;45649;53.014;6.600;2022-08-19T06:26:48;17.90;91.10
59771;DHT22;45649;53.014;6.600;2022-08-19T06:29:16;18.00;91.10
59771;DHT22;45649;53.014;6.600;2022-08-19T06:31:44;18.00;91.20
59771;DHT22;45649;53.014;6.600;2022-08-19T06:34:10;18.10;91.50
59771;DHT22;45649;53.014;6.600;2022-08-19T06:36:44;18.10;91.00
59771;DHT22;45649;53.014;6.600;2022-08-19T06:39:16;18.20;90.90
59771;DHT22;45649;53.014;6.600;2022-08-19T06:41:44;18.20;91.30
59771;DHT22;45649;53.014;6.600;2022-08-19T06:44:11;18.20;90.60
59771;DHT22;45649;53.014;6.600;2022-08-19T06:46:39;18.20;91.20
59771;DHT22;45649;53.014;6.600;2022-08-19T06:49:05;18.40;91.80
59771;DHT22;45649;53.014;6.600;2022-08-19T06:51:32;18.60;90.70
59771;DHT22;45649;53.014;6.600;2022-08-19T06:53:58;18.60;91.30
59771;DHT22;45649;53.014;6.600;2022-08-19T06:56:27;18.60;91.30
59771;DHT22;45649;53.014;6.600;2022-08-19T06:59:10;18.60;90.60
59771;DHT22;45649;53.014;6.600;2022-08-19T07:01:51;18.60;91.30
59771;DHT22;45649;53.014;6.600;2022-08-19T07:04:20;18.70;90.80
59771;DHT22;45649;53.014;6.600;2022-08-19T07:06:47;18.70;91.20
59771;DHT22;45649;53.014;6.600;2022-08-19T07:09:15;18.80;89.90
59771;DHT22;45649;53.014;6.600;2022-08-19T07:11:46;18.80;89.20
59771;DHT22;45649;53.014;6.600;2022-08-19T07:14:13;18.90;89.50
59771;DHT22;45649;53.014;6.600;2022-08-19T07:16:40;19.00;90.80
59771;DHT22;45649;53.014;6.600;2022-08-19T07:19:06;19.00;88.80
59771;DHT22;45649;53.014;6.600;2022-08-19T07:21:32;19.00;91.20
59771;DHT22;45649;53.014;6.600;2022-08-19T07:23:59;19.10;91.40
59771;DHT22;45649;53.014;6.600;2022-08-19T07:26:31;19.20;91.40
59771;DHT22;45649;53.014;6.600;2022-08-19T07:28:58;19.20;90.80
59771;DHT22;45649;53.014;6.600;2022-08-19T07:31:26;19.30;91.20
59771;DHT22;45649;53.014;6.600;2022-08-19T07:33:54;19.30;91.60
59771;DHT22;45649;53.014;6.600;2022-08-19T07:36:27;19.40;90.90
59771;DHT22;45649;53.014;6.600;2022-08-19T07:38:56;19.50;91.00
59771;DHT22;45649;53.014;6.600;2022-08-19T07:41:24;19.60;90.90
59771;DHT22;45649;53.014;6.600;2022-08-19T07:43:51;19.60;90.10
59771;DHT22;45649;53.014;6.600;2022-08-19T07:46:18;19.70;90.90
59771;DHT22;45649;53.014;6.600;2022-08-19T07:48:47;19.70;90.90
59771;DHT22;45649;53.014;6.600;2022-08-19T07:51:16;19.80;90.50
59771;DHT22;45649;53.014;6.600;2022-08-19T07:53:42;19.90;90.00
59771;DHT22;45649;53.014;6.600;2022-08-19T07:56:08;19.90;90.40
59771;DHT22;45649;53.014;6.600;2022-08-19T07:58:37;20.00;89.10
59771;DHT22;45649;53.014;6.600;2022-08-19T08:01:04;20.00;89.50
59771;DHT22;45649;53.014;6.600;2022-08-19T08:03:32;20.10;89.90
59771;DHT22;45649;53.014;6.600;2022-08-19T08:06:17;20.10;89.10
59771;DHT22;45649;53.014;6.600;2022-08-19T08:09:03;20.20;90.00
59771;DHT22;45649;53.014;6.600;2022-08-19T08:11:54;20.30;89.60
59771;DHT22;45649;53.014;6.600;2022-08-19T08:14:27;20.30;88.20
59771;DHT22;45649;53.014;6.600;2022-08-19T08:16:53;20.40;88.10
59771;DHT22;45649;53.014;6.600;2022-08-19T08:19:21;20.50;87.60
59771;DHT22;45649;53.014;6.600;2022-08-19T08:21:49;20.60;88.20
59771;DHT22;45649;53.014;6.600;2022-08-19T08:24:15;20.60;86.90
59771;DHT22;45649;53.014;6.600;2022-08-19T08:26:42;20.70;87.40
59771;DHT22;45649;53.014;6.600;2022-08-19T08:29:10;20.80;87.90
59771;DHT22;45649;53.014;6.600;2022-08-19T08:31:37;20.90;87.90
59771;DHT22;45649;53.014;6.600;2022-08-19T08:34:03;21.00;87.60
59771;DHT22;45649;53.014;6.600;2022-08-19T08:36:29;21.00;87.10
59771;DHT22;45649;53.014;6.600;2022-08-19T08:38:59;21.10;87.10
59771;DHT22;45649;53.014;6.600;2022-08-19T08:41:31;21.20;86.70
59771;DHT22;45649;53.014;6.600;2022-08-19T08:44:01;21.30;86.10
59771;DHT22;45649;53.014;6.600;2022-08-19T08:51:36;21.40;85.20
59771;DHT22;45649;53.014;6.600;2022-08-19T08:54:06;21.50;84.80
59771;DHT22;45649;53.014;6.600;2022-08-19T08:56:36;21.60;84.50
59771;DHT22;45649;53.014;6.600;2022-08-19T08:59:07;21.70;84.50
59771;DHT22;45649;53.014;6.600;2022-08-19T09:01:35;21.70;84.00
59771;DHT22;45649;53.014;6.600;2022-08-19T09:04:05;21.80;83.90
59771;DHT22;45649;53.014;6.600;2022-08-19T09:09:24;22.00;82.50
59771;DHT22;45649;53.014;6.600;2022-08-19T09:12:00;22.00;82.60
59771;DHT22;45649;53.014;6.600;2022-08-19T09:16:58;22.20;82.00
59771;DHT22;45649;53.014;6.600;2022-08-19T09:19:24;22.30;81.90
59771;DHT22;45649;53.014;6.600;2022-08-19T09:21:50;22.30;81.50
59771;DHT22;45649;53.014;6.600;2022-08-19T09:24:16;22.40;80.80
59771;DHT22;45649;53.014;6.600;2022-08-19T09:26:42;22.40;80.40
59771;DHT22;45649;53.014;6.600;2022-08-19T09:29:09;22.50;80.60
59771;DHT22;45649;53.014;6.600;2022-08-19T09:31:36;22.60;80.70
59771;DHT22;45649;53.014;6.600;2022-08-19T09:34:02;22.60;80.20
59771;DHT22;45649;53.014;6.600;2022-08-19T09:36:30;22.70;80.10
59771;DHT22;45649;53.014;6.600;2022-08-19T09:39:05;22.80;79.70
59771;DHT22;45649;53.014;6.600;2022-08-19T09:41:31;22.90;79.60
59771;DHT22;45649;53.014;6.600;2022-08-19T09:43:59;22.90;79.20
59771;DHT22;45649;53.014;6.600;2022-08-19T09:46:28;23.00;78.80
59771;DHT22;45649;53.014;6.600;2022-08-19T09:48:59;23.10;78.80
59771;DHT22;45649;53.014;6.600;2022-08-19T09:51:27;23.10;78.10
59771;DHT22;45649;53.014;6.600;2022-08-19T09:54:00;23.20;78.40
59771;DHT22;45649;53.014;6.600;2022-08-19T09:56:27;23.30;78.00
59771;DHT22;45649;53.014;6.600;2022-08-19T09:58:53;23.40;77.30
59771;DHT22;45649;53.014;6.600;2022-08-19T10:01:26;23.50;77.00
59771;DHT22;45649;53.014;6.600;2022-08-19T10:03:54;23.50;76.20
59771;DHT22;45649;53.014;6.600;2022-08-19T10:06:23;23.60;76.70
59771;DHT22;45649;53.014;6.600;2022-08-19T10:08:50;23.60;76.80
59771;DHT22;45649;53.014;6.600;2022-08-19T10:11:18;23.80;76.60
59771;DHT22;45649;53.014;6.600;2022-08-19T10:13:44;23.90;76.00
59771;DHT22;45649;53.014;6.600;2022-08-19T10:16:16;23.90;76.10
59771;DHT22;45649;53.014;6.600;2022-08-19T10:18:42;24.00;75.50
59771;DHT22;45649;53.014;6.600;2022-08-19T10:21:14;24.10;75.60
59771;DHT22;45649;53.014;6.600;2022-08-19T10:23:43;24.10;74.90
59771;DHT22;45649;53.014;6.600;2022-08-19T10:26:12;24.10;75.00
59771;DHT22;45649;53.014;6.600;2022-08-19T10:28:38;24.20;74.20
59771;DHT22;45649;53.014;6.600;2022-08-19T10:31:14;24.30;74.10
59771;DHT22;45649;53.014;6.600;2022-08-19T10:33:41;24.30;73.50
59771;DHT22;45649;53.014;6.600;2022-08-19T10:36:12;24.40;73.30
59771;DHT22;45649;53.014;6.600;2022-08-19T10:38:43;24.50;73.00
59771;DHT22;45649;53.014;6.600;2022-08-19T10:41:21;24.50;72.30
59771;DHT22;45649;53.014;6.600;2022-08-19T10:43:52;24.50;71.90
59771;DHT22;45649;53.014;6.600;2022-08-19T10:46:20;24.60;72.40
59771;DHT22;45649;53.014;6.600;2022-08-19T10:48:47;24.60;71.70
59771;DHT22;45649;53.014;6.600;2022-08-19T10:51:13;24.70;71.30
59771;DHT22;45649;53.014;6.600;2022-08-19T10:53:58;24.80;71.70
59771;DHT22;45649;53.014;6.600;2022-08-19T10:56:24;24.90;70.10
59771;DHT22;45649;53.014;6.600;2022-08-19T10:59:28;24.90;69.70
59771;DHT22;45649;53.014;6.600;2022-08-19T11:01:59;24.90;69.50
59771;DHT22;45649;53.014;6.600;2022-08-19T11:04:25;25.00;69.30
59771;DHT22;45649;53.014;6.600;2022-08-19T11:06:50;25.20;69.70
59771;DHT22;45649;53.014;6.600;2022-08-19T11:09:22;25.30;69.20
59771;DHT22;45649;53.014;6.600;2022-08-19T11:11:51;25.40;68.60
59771;DHT22;45649;53.014;6.600;2022-08-19T11:14:20;25.30;69.50
59771;DHT22;45649;53.014;6.600;2022-08-19T11:16:48;25.10;68.90
59771;DHT22;45649;53.014;6.600;2022-08-19T11:19:15;25.00;70.20
59771;DHT22;45649;53.014;6.600;2022-08-19T11:21:45;24.90;70.40
59771;DHT22;45649;53.014;6.600;2022-08-19T11:24:22;24.80;70.70
59771;DHT22;45649;53.014;6.600;2022-08-19T11:26:50;24.80;70.60
59771;DHT22;45649;53.014;6.600;2022-08-19T11:29:20;24.90;71.60
59771;DHT22;45649;53.014;6.600;2022-08-19T11:31:48;24.80;71.60
59771;DHT22;45649;53.014;6.600;2022-08-19T11:34:20;24.70;71.50
59771;DHT22;45649;53.014;6.600;2022-08-19T11:36:47;24.80;71.20
59771;DHT22;45649;53.014;6.600;2022-08-19T11:39:19;24.90;73.30
59771;DHT22;45649;53.014;6.600;2022-08-19T11:41:45;25.00;71.20
59771;DHT22;45649;53.014;6.600;2022-08-19T11:44:12;25.10;80.70
59771;DHT22;45649;53.014;6.600;2022-08-19T11:46:40;23.60;87.60
59771;DHT22;45649;53.014;6.600;2022-08-19T11:49:07;23.00;90.20
59771;DHT22;45649;53.014;6.600;2022-08-19T11:51:34;22.60;91.40
59771;DHT22;45649;53.014;6.600;2022-08-19T11:54:01;22.30;94.20
59771;DHT22;45649;53.014;6.600;2022-08-19T11:56:27;22.00;95.00
59771;DHT22;45649;53.014;6.600;2022-08-19T11:58:54;21.80;95.20
59771;DHT22;45649;53.014;6.600;2022-08-19T12:01:23;21.80;95.60
59771;DHT22;45649;53.014;6.600;2022-08-19T12:03:51;21.70;94.90
59771;DHT22;45649;53.014;6.600;2022-08-19T12:06:22;21.70;95.50
59771;DHT22;45649;53.014;6.600;2022-08-19T12:08:55;21.80;95.90
59771;DHT22;45649;53.014;6.600;2022-08-19T12:11:21;21.90;97.00
59771;DHT22;45649;53.014;6.600;2022-08-19T12:13:47;21.90;96.10
59771;DHT22;45649;53.014;6.600;2022-08-19T12:16:18;21.90;95.30
59771;DHT22;45649;53.014;6.600;2022-08-19T12:18:45;21.90;94.30
59771;DHT22;45649;53.014;6.600;2022-08-19T12:21:13;21.80;94.50
59771;DHT22;45649;53.014;6.600;2022-08-19T12:23:40;21.90;94.40
59771;DHT22;45649;53.014;6.600;2022-08-19T12:26:06;21.90;94.60
59771;DHT22;45649;53.014;6.600;2022-08-19T12:28:34;21.90;93.90
59771;DHT22;45649;53.014;6.600;2022-08-19T12:30:59;21.90;93.60
59771;DHT22;45649;53.014;6.600;2022-08-19T12:33:25;21.90;93.60
59771;DHT22;45649;53.014;6.600;2022-08-19T12:35:53;21.90;92.70
59771;DHT22;45649;53.014;6.600;2022-08-19T12:38:19;21.90;93.10
59771;DHT22;45649;53.014;6.600;2022-08-19T12:40:46;22.00;93.20
59771;DHT22;45649;53.014;6.600;2022-08-19T12:43:12;22.30;94.90
59771;DHT22;45649;53.014;6.600;2022-08-19T12:45:39;22.40;91.20
59771;DHT22;45649;53.014;6.600;2022-08-19T12:48:04;22.40;92.20
59771;DHT22;45649;53.014;6.600;2022-08-19T12:50:30;22.80;92.40
59771;DHT22;45649;53.014;6.600;2022-08-19T12:52:57;22.80;90.10
59771;DHT22;45649;53.014;6.600;2022-08-19T12:55:23;22.90;90.70
59771;DHT22;45649;53.014;6.600;2022-08-19T12:57:50;22.90;89.20
59771;DHT22;45649;53.014;6.600;2022-08-19T13:00:19;23.10;89.40
59771;DHT22;45649;53.014;6.600;2022-08-19T13:02:48;23.30;88.90
59771;DHT22;45649;53.014;6.600;2022-08-19T13:05:27;23.50;86.50
59771;DHT22;45649;53.014;6.600;2022-08-19T13:07:54;23.60;80.70
59771;DHT22;45649;53.014;6.600;2022-08-19T13:10:24;23.60;84.90
59771;DHT22;45649;53.014;6.600;2022-08-19T13:12:51;23.70;85.10
59771;DHT22;45649;53.014;6.600;2022-08-19T13:15:19;23.80;83.90
59771;DHT22;45649;53.014;6.600;2022-08-19T13:17:50;23.80;84.20
59771;DHT22;45649;53.014;6.600;2022-08-19T13:20:18;23.80;83.10
59771;DHT22;45649;53.014;6.600;2022-08-19T13:22:45;23.80;83.60
59771;DHT22;45649;53.014;6.600;2022-08-19T13:25:12;23.80;84.40
59771;DHT22;45649;53.014;6.600;2022-08-19T13:27:39;23.70;81.90
59771;DHT22;45649;53.014;6.600;2022-08-19T13:30:07;23.60;81.70
59771;DHT22;45649;53.014;6.600;2022-08-19T13:32:52;23.60;83.70
59771;DHT22;45649;53.014;6.600;2022-08-19T13:35:46;23.70;85.70
59771;DHT22;45649;53.014;6.600;2022-08-19T13:38:13;23.70;85.00
59771;DHT22;45649;53.014;6.600;2022-08-19T13:40:40;23.80;84.60
59771;DHT22;45649;53.014;6.600;2022-08-19T13:43:06;23.80;85.00
59771;DHT22;45649;53.014;6.600;2022-08-19T13:45:33;23.70;86.70
59771;DHT22;45649;53.014;6.600;2022-08-19T13:48:00;23.70;85.70
59771;DHT22;45649;53.014;6.600;2022-08-19T13:50:30;23.60;86.50
59771;DHT22;45649;53.014;6.600;2022-08-19T13:52:59;23.50;87.00
59771;DHT22;45649;53.014;6.600;2022-08-19T13:55:26;23.50;87.30
59771;DHT22;45649;53.014;6.600;2022-08-19T13:57:57;23.40;86.40
59771;DHT22;45649;53.014;6.600;2022-08-19T14:00:26;23.20;88.30
59771;DHT22;45649;53.014;6.600;2022-08-19T14:02:53;23.10;88.90
59771;DHT22;45649;53.014;6.600;2022-08-19T14:05:23;23.10;89.40
59771;DHT22;45649;53.014;6.600;2022-08-19T14:07:49;23.00;89.80
59771;DHT22;45649;53.014;6.600;2022-08-19T14:10:16;22.90;89.80
59771;DHT22;45649;53.014;6.600;2022-08-19T14:12:43;22.80;90.30
59771;DHT22;45649;53.014;6.600;2022-08-19T14:15:11;22.80;90.20
59771;DHT22;45649;53.014;6.600;2022-08-19T14:17:39;22.80;90.30
59771;DHT22;45649;53.014;6.600;2022-08-19T14:20:07;22.80;90.20
59771;DHT22;45649;53.014;6.600;2022-08-19T14:22:39;22.90;90.00
59771;DHT22;45649;53.014;6.600;2022-08-19T14:25:07;22.90;90.00
59771;DHT22;45649;53.014;6.600;2022-08-19T14:27:37;22.90;89.90
59771;DHT22;45649;53.014;6.600;2022-08-19T14:30:05;22.90;89.00
59771;DHT22;45649;53.014;6.600;2022-08-19T14:32:32;22.90;87.10
59771;DHT22;45649;53.014;6.600;2022-08-19T14:35:03;23.00;88.20
59771;DHT22;45649;53.014;6.600;2022-08-19T14:37:29;23.10;88.90
59771;DHT22;45649;53.014;6.600;2022-08-19T14:39:55;23.30;87.90
59771;DHT22;45649;53.014;6.600;2022-08-19T14:42:21;23.40;86.70
59771;DHT22;45649;53.014;6.600;2022-08-19T14:44:47;23.30;87.00
59771;DHT22;45649;53.014;6.600;2022-08-19T14:47:13;23.40;86.90
59771;DHT22;45649;53.014;6.600;2022-08-19T14:49:39;23.30;86.70
59771;DHT22;45649;53.014;6.600;2022-08-19T14:52:05;23.30;86.90
59771;DHT22;45649;53.014;6.600;2022-08-19T14:54:31;23.30;86.90
59771;DHT22;45649;53.014;6.600;2022-08-19T14:56:57;23.30;87.10
59771;DHT22;45649;53.014;6.600;2022-08-19T14:59:23;23.20;87.40
59771;DHT22;45649;53.014;6.600;2022-08-19T15:01:49;23.20;87.20
59771;DHT22;45649;53.014;6.600;2022-08-19T15:04:14;23.30;87.60
59771;DHT22;45649;53.014;6.600;2022-08-19T15:06:40;23.20;87.20
59771;DHT22;45649;53.014;6.600;2022-08-19T15:09:08;23.20;87.30
59771;DHT22;45649;53.014;6.600;2022-08-19T15:11:34;23.20;86.60
59771;DHT22;45649;53.014;6.600;2022-08-19T15:14:00;23.20;87.20
59771;DHT22;45649;53.014;6.600;2022-08-19T15:16:27;23.30;86.80
59771;DHT22;45649;53.014;6.600;2022-08-19T15:18:56;23.40;85.20
59771;DHT22;45649;53.014;6.600;2022-08-19T15:21:23;23.40;85.40
59771;DHT22;45649;53.014;6.600;2022-08-19T15:23:50;23.50;84.70
59771;DHT22;45649;53.014;6.600;2022-08-19T15:26:17;23.40;86.00
59771;DHT22;45649;53.014;6.600;2022-08-19T15:28:44;23.40;85.50
59771;DHT22;45649;53.014;6.600;2022-08-19T15:31:10;23.30;86.20
59771;DHT22;45649;53.014;6.600;2022-08-19T15:33:39;23.40;86.70
59771;DHT22;45649;53.014;6.600;2022-08-19T15:36:08;23.40;86.20
59771;DHT22;45649;53.014;6.600;2022-08-19T15:38:34;23.40;86.50
59771;DHT22;45649;53.014;6.600;2022-08-19T15:41:02;23.40;86.50
59771;DHT22;45649;53.014;6.600;2022-08-19T15:46:23;23.30;88.30
59771;DHT22;45649;53.014;6.600;2022-08-19T15:48:50;23.30;89.50
59771;DHT22;45649;53.014;6.600;2022-08-19T15:51:17;23.40;87.70